sensor_id;sensor_type;location;lat;lon;timestamp;P1;durP1;ratioP1;P2;durP2;ratioP2
35795;SDS011;21916;52.428;13.302;2024-03-08T00:00:17;29.63;;;15.30;;
35795;SDS011;21916;52.428;13.302;2024-03-08T00:02:44;32.53;;;15.63;;
35795;SDS011;21916;52.428;13.302;2024-03-08T00:05:10;34.28;;;14.93;;
35795;SDS011;21916;52.428;13.302;2024-03-08T00:07:37;37.88;;;15.95;;
35795;SDS011;21916;52.428;13.302;2024-03-08T00:10:04;32.08;;;15.27;;
35795;SDS011;21916;52.428;13.302;2024-03-08T00:12:38;35.70;;;15.93;;
35795;SDS011;21916;52.428;13.302;2024-03-08T00:15:08;28.85;;;15.30;;
35795;SDS011;21916;52.428;13.302;2024-03-08T00:17:34;32.42;;;14.85;;
35795;SDS011;21916;52.428;13.302;2024-03-08T00:20:00;33.47;;;14.20;;
35795;SDS011;21916;52.428;13.302;2024-03-08T00:22:26;31.83;;;14.77;;
35795;SDS011;21916;52.428;13.302;2024-03-08T00:24:51;29.92;;;14.60;;
35795;SDS011;21916;52.428;13.302;2024-03-08T00:27:17;31.13;;;14.50;;
35795;SDS011;21916;52.428;13.302;2024-03-08T00:29:46;29.42;;;14.48;;
35795;SDS011;21916;52.428;13.302;2024-03-08T00:32:12;36.05;;;16.25;;
35795;SDS011;21916;52.428;13.302;2024-03-08T00:34:38;38.00;;;16.80;;
35795;SDS011;21916;52.428;13.302;2024-03-08T00:37:04;30.85;;;15.63;;
35795;SDS011;21916;52.428;13.302;2024-03-08T00:39:30;32.20;;;16.52;;
35795;SDS011;21916;52.428;13.302;2024-03-08T00:41:56;36.95;;;16.15;;
35795;SDS011;21916;52.428;13.302;2024-03-08T00:44:22;33.40;;;16.20;;
35795;SDS011;21916;52.428;13.302;2024-03-08T00:46:48;32.28;;;16.20;;
35795;SDS011;21916;52.428;13.302;2024-03-08T00:49:14;34.72;;;16.23;;
35795;SDS011;21916;52.428;13.302;2024-03-08T00:51:40;34.88;;;16.30;;
35795;SDS011;21916;52.428;13.302;2024-03-08T00:54:06;34.42;;;15.75;;
35795;SDS011;21916;52.428;13.302;2024-03-08T00:56:31;34.10;;;17.75;;
35795;SDS011;21916;52.428;13.302;2024-03-08T00:58:59;34.50;;;15.93;;
35795;SDS011;21916;52.428;13.302;2024-03-08T01:01:25;36.85;;;16.42;;
35795;SDS011;21916;52.428;13.302;2024-03-08T01:03:51;37.25;;;18.00;;
35795;SDS011;21916;52.428;13.302;2024-03-08T01:06:17;36.38;;;16.83;;
35795;SDS011;21916;52.428;13.302;2024-03-08T01:08:43;35.60;;;16.73;;
35795;SDS011;21916;52.428;13.302;2024-03-08T01:11:10;40.10;;;19.00;;
35795;SDS011;21916;52.428;13.302;2024-03-08T01:13:37;35.42;;;16.65;;
35795;SDS011;21916;52.428;13.302;2024-03-08T01:16:03;35.72;;;17.40;;
35795;SDS011;21916;52.428;13.302;2024-03-08T01:18:29;34.17;;;17.35;;
35795;SDS011;21916;52.428;13.302;2024-03-08T01:20:55;38.95;;;17.45;;
35795;SDS011;21916;52.428;13.302;2024-03-08T01:23:21;36.08;;;16.02;;
35795;SDS011;21916;52.428;13.302;2024-03-08T01:25:47;42.03;;;18.23;;
35795;SDS011;21916;52.428;13.302;2024-03-08T01:28:22;37.45;;;18.38;;
35795;SDS011;21916;52.428;13.302;2024-03-08T01:30:49;36.45;;;16.85;;
35795;SDS011;21916;52.428;13.302;2024-03-08T01:33:20;38.75;;;18.10;;
35795;SDS011;21916;52.428;13.302;2024-03-08T01:35:53;40.53;;;17.42;;
35795;SDS011;21916;52.428;13.302;2024-03-08T01:38:19;35.38;;;17.00;;
35795;SDS011;21916;52.428;13.302;2024-03-08T01:40:48;35.05;;;17.85;;
35795;SDS011;21916;52.428;13.302;2024-03-08T01:43:21;36.45;;;18.02;;
35795;SDS011;21916;52.428;13.302;2024-03-08T01:45:50;37.67;;;18.13;;
35795;SDS011;21916;52.428;13.302;2024-03-08T01:48:16;36.78;;;17.65;;
35795;SDS011;21916;52.428;13.302;2024-03-08T01:50:43;36.60;;;17.88;;
35795;SDS011;21916;52.428;13.302;2024-03-08T01:53:10;38.38;;;17.75;;
35795;SDS011;21916;52.428;13.302;2024-03-08T01:55:37;40.45;;;17.80;;
35795;SDS011;21916;52.428;13.302;2024-03-08T01:58:06;36.85;;;16.55;;
35795;SDS011;21916;52.428;13.302;2024-03-08T02:00:35;40.90;;;18.05;;
35795;SDS011;21916;52.428;13.302;2024-03-08T02:03:05;38.13;;;16.67;;
35795;SDS011;21916;52.428;13.302;2024-03-08T02:05:31;39.58;;;17.27;;
35795;SDS011;21916;52.428;13.302;2024-03-08T02:07:57;39.90;;;18.92;;
35795;SDS011;21916;52.428;13.302;2024-03-08T02:10:23;42.08;;;17.75;;
35795;SDS011;21916;52.428;13.302;2024-03-08T02:12:49;38.47;;;17.33;;
35795;SDS011;21916;52.428;13.302;2024-03-08T02:15:15;40.78;;;17.70;;
35795;SDS011;21916;52.428;13.302;2024-03-08T02:17:41;35.70;;;17.02;;
35795;SDS011;21916;52.428;13.302;2024-03-08T02:20:07;34.13;;;16.67;;
35795;SDS011;21916;52.428;13.302;2024-03-08T02:22:34;39.50;;;17.80;;
35795;SDS011;21916;52.428;13.302;2024-03-08T02:25:02;38.83;;;16.83;;
35795;SDS011;21916;52.428;13.302;2024-03-08T02:27:28;36.67;;;18.00;;
35795;SDS011;21916;52.428;13.302;2024-03-08T02:29:55;36.75;;;16.92;;
35795;SDS011;21916;52.428;13.302;2024-03-08T02:32:25;36.38;;;16.30;;
35795;SDS011;21916;52.428;13.302;2024-03-08T02:34:51;36.60;;;17.88;;
35795;SDS011;21916;52.428;13.302;2024-03-08T02:37:21;37.30;;;17.00;;
35795;SDS011;21916;52.428;13.302;2024-03-08T02:39:47;36.60;;;18.70;;
35795;SDS011;21916;52.428;13.302;2024-03-08T02:42:13;34.33;;;16.25;;
35795;SDS011;21916;52.428;13.302;2024-03-08T02:44:42;36.55;;;17.17;;
35795;SDS011;21916;52.428;13.302;2024-03-08T02:47:10;41.47;;;16.73;;
35795;SDS011;21916;52.428;13.302;2024-03-08T02:49:36;34.08;;;16.88;;
35795;SDS011;21916;52.428;13.302;2024-03-08T02:52:03;35.97;;;15.65;;
35795;SDS011;21916;52.428;13.302;2024-03-08T02:54:30;35.42;;;15.15;;
35795;SDS011;21916;52.428;13.302;2024-03-08T02:56:56;39.53;;;18.38;;
35795;SDS011;21916;52.428;13.302;2024-03-08T02:59:21;40.88;;;16.58;;
35795;SDS011;21916;52.428;13.302;2024-03-08T03:01:48;38.13;;;17.40;;
35795;SDS011;21916;52.428;13.302;2024-03-08T03:04:14;35.45;;;16.02;;
35795;SDS011;21916;52.428;13.302;2024-03-08T03:06:40;38.85;;;16.75;;
35795;SDS011;21916;52.428;13.302;2024-03-08T03:09:06;39.92;;;16.20;;
35795;SDS011;21916;52.428;13.302;2024-03-08T03:11:32;37.92;;;16.83;;
35795;SDS011;21916;52.428;13.302;2024-03-08T03:13:58;41.13;;;17.00;;
35795;SDS011;21916;52.428;13.302;2024-03-08T03:16:23;35.80;;;16.80;;
35795;SDS011;21916;52.428;13.302;2024-03-08T03:18:49;42.33;;;17.00;;
35795;SDS011;21916;52.428;13.302;2024-03-08T03:21:15;37.05;;;18.08;;
35795;SDS011;21916;52.428;13.302;2024-03-08T03:23:41;36.67;;;16.67;;
35795;SDS011;21916;52.428;13.302;2024-03-08T03:26:09;38.28;;;16.60;;
35795;SDS011;21916;52.428;13.302;2024-03-08T03:28:38;36.55;;;17.10;;
35795;SDS011;21916;52.428;13.302;2024-03-08T03:31:08;40.65;;;16.65;;
35795;SDS011;21916;52.428;13.302;2024-03-08T03:33:39;33.88;;;16.05;;
35795;SDS011;21916;52.428;13.302;2024-03-08T03:36:05;37.95;;;16.42;;
35795;SDS011;21916;52.428;13.302;2024-03-08T03:38:34;36.35;;;16.23;;
35795;SDS011;21916;52.428;13.302;2024-03-08T03:41:00;38.47;;;17.10;;
35795;SDS011;21916;52.428;13.302;2024-03-08T03:43:32;33.45;;;15.80;;
35795;SDS011;21916;52.428;13.302;2024-03-08T03:45:58;35.45;;;15.35;;
35795;SDS011;21916;52.428;13.302;2024-03-08T03:48:23;33.33;;;16.27;;
35795;SDS011;21916;52.428;13.302;2024-03-08T03:50:49;37.88;;;17.30;;
35795;SDS011;21916;52.428;13.302;2024-03-08T03:53:15;40.17;;;16.60;;
35795;SDS011;21916;52.428;13.302;2024-03-08T03:55:41;43.85;;;17.45;;
35795;SDS011;21916;52.428;13.302;2024-03-08T03:58:07;35.67;;;16.98;;
35795;SDS011;21916;52.428;13.302;2024-03-08T04:00:34;39.17;;;17.20;;
35795;SDS011;21916;52.428;13.302;2024-03-08T04:03:00;37.03;;;15.85;;
35795;SDS011;21916;52.428;13.302;2024-03-08T04:05:26;39.70;;;18.83;;
35795;SDS011;21916;52.428;13.302;2024-03-08T04:07:52;41.42;;;16.48;;
35795;SDS011;21916;52.428;13.302;2024-03-08T04:10:18;37.10;;;17.38;;
35795;SDS011;21916;52.428;13.302;2024-03-08T04:12:43;33.95;;;16.45;;
35795;SDS011;21916;52.428;13.302;2024-03-08T04:15:10;36.72;;;16.75;;
35795;SDS011;21916;52.428;13.302;2024-03-08T04:17:36;35.20;;;16.88;;
35795;SDS011;21916;52.428;13.302;2024-03-08T04:20:04;37.83;;;17.40;;
35795;SDS011;21916;52.428;13.302;2024-03-08T04:22:36;39.58;;;18.60;;
35795;SDS011;21916;52.428;13.302;2024-03-08T04:25:03;38.67;;;17.45;;
35795;SDS011;21916;52.428;13.302;2024-03-08T04:27:29;35.13;;;16.13;;
35795;SDS011;21916;52.428;13.302;2024-03-08T04:29:57;42.00;;;17.95;;
35795;SDS011;21916;52.428;13.302;2024-03-08T04:32:25;40.20;;;17.35;;
35795;SDS011;21916;52.428;13.302;2024-03-08T04:34:51;36.30;;;18.85;;
35795;SDS011;21916;52.428;13.302;2024-03-08T04:37:16;39.50;;;18.35;;
35795;SDS011;21916;52.428;13.302;2024-03-08T04:39:48;38.95;;;19.65;;
35795;SDS011;21916;52.428;13.302;2024-03-08T04:42:14;42.42;;;17.98;;
35795;SDS011;21916;52.428;13.302;2024-03-08T04:44:41;45.20;;;18.63;;
35795;SDS011;21916;52.428;13.302;2024-03-08T04:47:07;37.90;;;18.23;;
35795;SDS011;21916;52.428;13.302;2024-03-08T04:49:32;42.85;;;17.92;;
35795;SDS011;21916;52.428;13.302;2024-03-08T04:52:02;38.90;;;18.20;;
35795;SDS011;21916;52.428;13.302;2024-03-08T04:54:28;43.35;;;18.63;;
35795;SDS011;21916;52.428;13.302;2024-03-08T04:56:55;39.72;;;19.67;;
35795;SDS011;21916;52.428;13.302;2024-03-08T04:59:22;37.20;;;17.25;;
35795;SDS011;21916;52.428;13.302;2024-03-08T05:01:49;44.67;;;19.52;;
35795;SDS011;21916;52.428;13.302;2024-03-08T05:04:14;45.88;;;18.83;;
35795;SDS011;21916;52.428;13.302;2024-03-08T05:06:40;40.88;;;19.55;;
35795;SDS011;21916;52.428;13.302;2024-03-08T05:09:07;40.55;;;18.42;;
35795;SDS011;21916;52.428;13.302;2024-03-08T05:11:42;39.70;;;18.05;;
35795;SDS011;21916;52.428;13.302;2024-03-08T05:14:12;45.60;;;19.60;;
35795;SDS011;21916;52.428;13.302;2024-03-08T05:16:46;41.60;;;19.17;;
35795;SDS011;21916;52.428;13.302;2024-03-08T05:19:15;49.47;;;19.48;;
35795;SDS011;21916;52.428;13.302;2024-03-08T05:21:45;48.33;;;18.88;;
35795;SDS011;21916;52.428;13.302;2024-03-08T05:24:11;44.47;;;18.80;;
35795;SDS011;21916;52.428;13.302;2024-03-08T05:26:38;44.28;;;19.90;;
35795;SDS011;21916;52.428;13.302;2024-03-08T05:29:04;42.78;;;19.58;;
35795;SDS011;21916;52.428;13.302;2024-03-08T05:31:30;41.70;;;18.27;;
35795;SDS011;21916;52.428;13.302;2024-03-08T05:34:13;44.50;;;19.17;;
35795;SDS011;21916;52.428;13.302;2024-03-08T05:36:40;39.72;;;19.95;;
35795;SDS011;21916;52.428;13.302;2024-03-08T05:39:06;46.85;;;20.08;;
35795;SDS011;21916;52.428;13.302;2024-03-08T05:41:32;45.10;;;19.70;;
35795;SDS011;21916;52.428;13.302;2024-03-08T05:43:58;46.90;;;21.13;;
35795;SDS011;21916;52.428;13.302;2024-03-08T05:46:23;43.58;;;20.40;;
35795;SDS011;21916;52.428;13.302;2024-03-08T05:48:49;41.40;;;19.38;;
35795;SDS011;21916;52.428;13.302;2024-03-08T05:51:15;49.80;;;19.70;;
35795;SDS011;21916;52.428;13.302;2024-03-08T05:53:40;48.00;;;20.70;;
35795;SDS011;21916;52.428;13.302;2024-03-08T05:56:06;53.55;;;20.10;;
35795;SDS011;21916;52.428;13.302;2024-03-08T05:58:32;45.63;;;20.20;;
35795;SDS011;21916;52.428;13.302;2024-03-08T06:00:57;45.58;;;20.50;;
35795;SDS011;21916;52.428;13.302;2024-03-08T06:03:24;42.83;;;18.92;;
35795;SDS011;21916;52.428;13.302;2024-03-08T06:05:51;46.17;;;21.17;;
35795;SDS011;21916;52.428;13.302;2024-03-08T06:08:17;48.00;;;21.48;;
35795;SDS011;21916;52.428;13.302;2024-03-08T06:10:45;42.10;;;20.58;;
35795;SDS011;21916;52.428;13.302;2024-03-08T06:13:13;45.35;;;21.35;;
35795;SDS011;21916;52.428;13.302;2024-03-08T06:15:39;45.08;;;20.60;;
35795;SDS011;21916;52.428;13.302;2024-03-08T06:18:07;51.90;;;22.75;;
35795;SDS011;21916;52.428;13.302;2024-03-08T06:20:35;49.80;;;22.02;;
35795;SDS011;21916;52.428;13.302;2024-03-08T06:23:01;43.28;;;21.25;;
35795;SDS011;21916;52.428;13.302;2024-03-08T06:25:27;46.90;;;21.25;;
35795;SDS011;21916;52.428;13.302;2024-03-08T06:27:52;47.28;;;22.02;;
35795;SDS011;21916;52.428;13.302;2024-03-08T06:30:18;42.97;;;20.83;;
35795;SDS011;21916;52.428;13.302;2024-03-08T06:32:45;52.80;;;23.10;;
35795;SDS011;21916;52.428;13.302;2024-03-08T06:35:11;43.20;;;20.67;;
35795;SDS011;21916;52.428;13.302;2024-03-08T06:37:37;49.03;;;22.08;;
35795;SDS011;21916;52.428;13.302;2024-03-08T06:40:02;53.75;;;22.35;;
35795;SDS011;21916;52.428;13.302;2024-03-08T06:42:29;43.17;;;21.25;;
35795;SDS011;21916;52.428;13.302;2024-03-08T06:44:58;48.08;;;20.60;;
35795;SDS011;21916;52.428;13.302;2024-03-08T06:47:29;44.85;;;21.60;;
35795;SDS011;21916;52.428;13.302;2024-03-08T06:49:55;49.30;;;21.25;;
35795;SDS011;21916;52.428;13.302;2024-03-08T06:52:21;44.58;;;21.27;;
35795;SDS011;21916;52.428;13.302;2024-03-08T06:54:47;51.65;;;21.88;;
35795;SDS011;21916;52.428;13.302;2024-03-08T06:57:13;54.58;;;22.58;;
35795;SDS011;21916;52.428;13.302;2024-03-08T06:59:39;46.45;;;21.25;;
35795;SDS011;21916;52.428;13.302;2024-03-08T07:02:05;44.17;;;21.45;;
35795;SDS011;21916;52.428;13.302;2024-03-08T07:04:34;46.80;;;21.70;;
35795;SDS011;21916;52.428;13.302;2024-03-08T07:07:06;48.45;;;21.05;;
35795;SDS011;21916;52.428;13.302;2024-03-08T07:09:35;43.03;;;20.77;;
35795;SDS011;21916;52.428;13.302;2024-03-08T07:12:02;46.15;;;21.50;;
35795;SDS011;21916;52.428;13.302;2024-03-08T07:14:28;50.47;;;22.88;;
35795;SDS011;21916;52.428;13.302;2024-03-08T07:16:54;48.35;;;20.40;;
35795;SDS011;21916;52.428;13.302;2024-03-08T07:19:19;44.70;;;19.75;;
35795;SDS011;21916;52.428;13.302;2024-03-08T07:21:46;44.47;;;20.33;;
35795;SDS011;21916;52.428;13.302;2024-03-08T07:24:12;47.47;;;21.27;;
35795;SDS011;21916;52.428;13.302;2024-03-08T07:26:57;42.85;;;20.10;;
35795;SDS011;21916;52.428;13.302;2024-03-08T07:29:23;42.40;;;19.85;;
35795;SDS011;21916;52.428;13.302;2024-03-08T07:31:48;42.78;;;20.10;;
35795;SDS011;21916;52.428;13.302;2024-03-08T07:34:27;47.30;;;20.13;;
35795;SDS011;21916;52.428;13.302;2024-03-08T07:36:57;48.47;;;22.67;;
35795;SDS011;21916;52.428;13.302;2024-03-08T07:39:23;47.50;;;20.25;;
35795;SDS011;21916;52.428;13.302;2024-03-08T07:41:49;43.60;;;19.98;;
35795;SDS011;21916;52.428;13.302;2024-03-08T07:44:18;40.90;;;19.55;;
35795;SDS011;21916;52.428;13.302;2024-03-08T07:46:43;43.55;;;19.75;;
35795;SDS011;21916;52.428;13.302;2024-03-08T07:49:09;40.30;;;19.48;;
35795;SDS011;21916;52.428;13.302;2024-03-08T07:51:39;45.55;;;20.83;;
35795;SDS011;21916;52.428;13.302;2024-03-08T07:54:05;43.78;;;21.45;;
35795;SDS011;21916;52.428;13.302;2024-03-08T07:56:32;41.63;;;20.48;;
35795;SDS011;21916;52.428;13.302;2024-03-08T07:58:58;43.33;;;20.83;;
35795;SDS011;21916;52.428;13.302;2024-03-08T08:01:24;41.85;;;20.67;;
35795;SDS011;21916;52.428;13.302;2024-03-08T08:03:49;40.25;;;20.45;;
35795;SDS011;21916;52.428;13.302;2024-03-08T08:06:15;45.00;;;19.65;;
35795;SDS011;21916;52.428;13.302;2024-03-08T08:08:41;45.50;;;21.70;;
35795;SDS011;21916;52.428;13.302;2024-03-08T08:11:08;47.70;;;22.13;;
35795;SDS011;21916;52.428;13.302;2024-03-08T08:13:34;44.45;;;19.98;;
35795;SDS011;21916;52.428;13.302;2024-03-08T08:16:01;37.75;;;18.02;;
35795;SDS011;21916;52.428;13.302;2024-03-08T08:18:33;37.75;;;19.60;;
35795;SDS011;21916;52.428;13.302;2024-03-08T08:21:01;43.72;;;20.23;;
35795;SDS011;21916;52.428;13.302;2024-03-08T08:23:27;41.42;;;19.65;;
35795;SDS011;21916;52.428;13.302;2024-03-08T08:25:54;42.28;;;19.40;;
35795;SDS011;21916;52.428;13.302;2024-03-08T08:28:20;42.25;;;20.45;;
35795;SDS011;21916;52.428;13.302;2024-03-08T08:30:46;34.72;;;17.50;;
35795;SDS011;21916;52.428;13.302;2024-03-08T08:33:12;39.75;;;18.17;;
35795;SDS011;21916;52.428;13.302;2024-03-08T08:35:38;39.05;;;18.98;;
35795;SDS011;21916;52.428;13.302;2024-03-08T08:38:04;33.28;;;17.50;;
35795;SDS011;21916;52.428;13.302;2024-03-08T08:40:30;34.78;;;18.05;;
35795;SDS011;21916;52.428;13.302;2024-03-08T08:43:00;34.53;;;17.42;;
35795;SDS011;21916;52.428;13.302;2024-03-08T08:45:29;33.03;;;17.83;;
35795;SDS011;21916;52.428;13.302;2024-03-08T08:47:56;34.40;;;17.58;;
35795;SDS011;21916;52.428;13.302;2024-03-08T08:50:25;33.28;;;16.70;;
35795;SDS011;21916;52.428;13.302;2024-03-08T08:52:53;31.42;;;15.90;;
35795;SDS011;21916;52.428;13.302;2024-03-08T08:55:19;36.50;;;16.92;;
35795;SDS011;21916;52.428;13.302;2024-03-08T08:57:51;29.80;;;15.68;;
35795;SDS011;21916;52.428;13.302;2024-03-08T09:00:18;31.25;;;15.95;;
35795;SDS011;21916;52.428;13.302;2024-03-08T09:02:45;36.35;;;17.25;;
35795;SDS011;21916;52.428;13.302;2024-03-08T09:05:12;36.15;;;16.48;;
35795;SDS011;21916;52.428;13.302;2024-03-08T09:07:39;30.40;;;16.63;;
35795;SDS011;21916;52.428;13.302;2024-03-08T09:10:05;26.92;;;14.68;;
35795;SDS011;21916;52.428;13.302;2024-03-08T09:12:32;30.52;;;15.13;;
35795;SDS011;21916;52.428;13.302;2024-03-08T09:14:58;27.23;;;16.17;;
35795;SDS011;21916;52.428;13.302;2024-03-08T09:17:24;27.50;;;15.25;;
35795;SDS011;21916;52.428;13.302;2024-03-08T09:19:50;30.58;;;15.85;;
35795;SDS011;21916;52.428;13.302;2024-03-08T09:22:16;29.08;;;14.85;;
35795;SDS011;21916;52.428;13.302;2024-03-08T09:24:43;30.30;;;15.38;;
35795;SDS011;21916;52.428;13.302;2024-03-08T09:27:09;35.95;;;15.98;;
35795;SDS011;21916;52.428;13.302;2024-03-08T09:29:35;34.33;;;15.60;;
35795;SDS011;21916;52.428;13.302;2024-03-08T09:32:01;35.00;;;16.17;;
35795;SDS011;21916;52.428;13.302;2024-03-08T09:34:26;32.22;;;15.27;;
35795;SDS011;21916;52.428;13.302;2024-03-08T09:36:52;33.97;;;16.42;;
35795;SDS011;21916;52.428;13.302;2024-03-08T09:39:18;28.08;;;14.38;;
35795;SDS011;21916;52.428;13.302;2024-03-08T09:41:46;34.38;;;17.33;;
35795;SDS011;21916;52.428;13.302;2024-03-08T09:44:15;33.72;;;15.15;;
35795;SDS011;21916;52.428;13.302;2024-03-08T09:46:41;28.50;;;15.13;;
35795;SDS011;21916;52.428;13.302;2024-03-08T09:49:08;30.17;;;14.40;;
35795;SDS011;21916;52.428;13.302;2024-03-08T09:51:35;30.33;;;13.90;;
35795;SDS011;21916;52.428;13.302;2024-03-08T09:54:02;28.88;;;15.00;;
35795;SDS011;21916;52.428;13.302;2024-03-08T09:56:34;27.80;;;15.38;;
35795;SDS011;21916;52.428;13.302;2024-03-08T09:59:01;25.75;;;13.77;;
35795;SDS011;21916;52.428;13.302;2024-03-08T10:01:58;28.40;;;13.93;;
35795;SDS011;21916;52.428;13.302;2024-03-08T10:04:24;26.95;;;13.48;;
35795;SDS011;21916;52.428;13.302;2024-03-08T10:06:55;28.38;;;13.52;;
35795;SDS011;21916;52.428;13.302;2024-03-08T10:09:25;26.25;;;13.43;;
35795;SDS011;21916;52.428;13.302;2024-03-08T10:11:59;29.00;;;13.45;;
35795;SDS011;21916;52.428;13.302;2024-03-08T10:14:28;31.20;;;15.43;;
35795;SDS011;21916;52.428;13.302;2024-03-08T10:16:54;26.25;;;13.43;;
35795;SDS011;21916;52.428;13.302;2024-03-08T10:19:25;28.20;;;12.73;;
35795;SDS011;21916;52.428;13.302;2024-03-08T10:21:53;34.38;;;15.23;;
35795;SDS011;21916;52.428;13.302;2024-03-08T10:24:19;31.25;;;13.75;;
35795;SDS011;21916;52.428;13.302;2024-03-08T10:26:45;29.60;;;13.70;;
35795;SDS011;21916;52.428;13.302;2024-03-08T10:29:11;26.42;;;13.00;;
35795;SDS011;21916;52.428;13.302;2024-03-08T10:31:43;22.95;;;12.50;;
35795;SDS011;21916;52.428;13.302;2024-03-08T10:34:09;24.40;;;13.10;;
35795;SDS011;21916;52.428;13.302;2024-03-08T10:36:37;27.00;;;13.45;;
35795;SDS011;21916;52.428;13.302;2024-03-08T10:39:07;25.77;;;13.60;;
35795;SDS011;21916;52.428;13.302;2024-03-08T10:41:50;23.58;;;12.77;;
35795;SDS011;21916;52.428;13.302;2024-03-08T10:47:03;22.65;;;11.73;;
35795;SDS011;21916;52.428;13.302;2024-03-08T10:52:20;23.77;;;10.93;;
35795;SDS011;21916;52.428;13.302;2024-03-08T10:54:47;20.00;;;10.23;;
35795;SDS011;21916;52.428;13.302;2024-03-08T10:57:14;26.73;;;12.82;;
35795;SDS011;21916;52.428;13.302;2024-03-08T10:59:44;19.67;;;10.73;;
35795;SDS011;21916;52.428;13.302;2024-03-08T11:02:12;20.80;;;11.02;;
35795;SDS011;21916;52.428;13.302;2024-03-08T11:04:38;21.70;;;10.95;;
35795;SDS011;21916;52.428;13.302;2024-03-08T11:07:03;22.60;;;11.18;;
35795;SDS011;21916;52.428;13.302;2024-03-08T11:09:32;22.88;;;11.63;;
35795;SDS011;21916;52.428;13.302;2024-03-08T11:14:49;22.10;;;11.88;;
35795;SDS011;21916;52.428;13.302;2024-03-08T11:17:16;22.05;;;11.63;;
35795;SDS011;21916;52.428;13.302;2024-03-08T11:20:13;18.60;;;10.32;;
35795;SDS011;21916;52.428;13.302;2024-03-08T11:22:50;22.55;;;12.05;;
35795;SDS011;21916;52.428;13.302;2024-03-08T11:25:33;18.55;;;10.70;;
35795;SDS011;21916;52.428;13.302;2024-03-08T11:28:17;18.67;;;9.93;;
35795;SDS011;21916;52.428;13.302;2024-03-08T11:33:34;17.88;;;10.93;;
35795;SDS011;21916;52.428;13.302;2024-03-08T11:38:40;17.30;;;10.43;;
35795;SDS011;21916;52.428;13.302;2024-03-08T11:41:07;16.95;;;10.45;;
35795;SDS011;21916;52.428;13.302;2024-03-08T11:43:33;17.90;;;10.73;;
35795;SDS011;21916;52.428;13.302;2024-03-08T11:46:08;15.02;;;9.77;;
35795;SDS011;21916;52.428;13.302;2024-03-08T11:48:34;17.15;;;10.27;;
35795;SDS011;21916;52.428;13.302;2024-03-08T11:51:03;15.88;;;10.52;;
35795;SDS011;21916;52.428;13.302;2024-03-08T11:53:30;16.13;;;10.38;;
35795;SDS011;21916;52.428;13.302;2024-03-08T11:58:52;16.15;;;9.85;;
35795;SDS011;21916;52.428;13.302;2024-03-08T12:01:22;16.75;;;10.48;;
35795;SDS011;21916;52.428;13.302;2024-03-08T12:03:55;14.88;;;10.32;;
35795;SDS011;21916;52.428;13.302;2024-03-08T12:06:25;14.63;;;8.93;;
35795;SDS011;21916;52.428;13.302;2024-03-08T12:08:52;13.05;;;8.85;;
35795;SDS011;21916;52.428;13.302;2024-03-08T12:11:19;11.15;;;7.82;;
35795;SDS011;21916;52.428;13.302;2024-03-08T12:13:48;13.52;;;8.48;;
35795;SDS011;21916;52.428;13.302;2024-03-08T12:16:19;11.52;;;8.25;;
35795;SDS011;21916;52.428;13.302;2024-03-08T12:18:46;13.52;;;8.27;;
35795;SDS011;21916;52.428;13.302;2024-03-08T12:21:13;10.77;;;7.38;;
35795;SDS011;21916;52.428;13.302;2024-03-08T12:23:42;11.77;;;8.48;;
35795;SDS011;21916;52.428;13.302;2024-03-08T12:26:13;11.77;;;8.30;;
35795;SDS011;21916;52.428;13.302;2024-03-08T12:28:41;13.23;;;8.75;;
35795;SDS011;21916;52.428;13.302;2024-03-08T12:31:11;12.40;;;7.75;;
35795;SDS011;21916;52.428;13.302;2024-03-08T12:33:42;17.88;;;7.38;;
35795;SDS011;21916;52.428;13.302;2024-03-08T12:36:17;10.73;;;7.13;;
35795;SDS011;21916;52.428;13.302;2024-03-08T12:38:48;12.07;;;8.10;;
35795;SDS011;21916;52.428;13.302;2024-03-08T12:41:14;10.80;;;7.40;;
35795;SDS011;21916;52.428;13.302;2024-03-08T12:43:40;13.13;;;7.63;;
35795;SDS011;21916;52.428;13.302;2024-03-08T12:46:06;11.32;;;8.20;;
35795;SDS011;21916;52.428;13.302;2024-03-08T12:48:35;11.93;;;7.93;;
35795;SDS011;21916;52.428;13.302;2024-03-08T12:51:01;13.05;;;8.65;;
35795;SDS011;21916;52.428;13.302;2024-03-08T12:53:27;12.52;;;8.25;;
35795;SDS011;21916;52.428;13.302;2024-03-08T12:55:54;12.95;;;8.00;;
35795;SDS011;21916;52.428;13.302;2024-03-08T12:58:21;12.93;;;8.30;;
35795;SDS011;21916;52.428;13.302;2024-03-08T13:00:47;14.60;;;8.73;;
35795;SDS011;21916;52.428;13.302;2024-03-08T13:03:14;15.52;;;8.98;;
35795;SDS011;21916;52.428;13.302;2024-03-08T13:05:40;10.57;;;7.47;;
35795;SDS011;21916;52.428;13.302;2024-03-08T13:08:07;12.93;;;8.73;;
35795;SDS011;21916;52.428;13.302;2024-03-08T13:10:41;13.02;;;8.30;;
35795;SDS011;21916;52.428;13.302;2024-03-08T13:13:09;13.18;;;9.13;;
35795;SDS011;21916;52.428;13.302;2024-03-08T13:15:35;13.18;;;8.88;;
35795;SDS011;21916;52.428;13.302;2024-03-08T13:18:01;12.20;;;8.30;;
35795;SDS011;21916;52.428;13.302;2024-03-08T13:20:26;12.43;;;8.50;;
35795;SDS011;21916;52.428;13.302;2024-03-08T13:22:53;11.32;;;7.72;;
35795;SDS011;21916;52.428;13.302;2024-03-08T13:25:20;13.77;;;9.50;;
35795;SDS011;21916;52.428;13.302;2024-03-08T13:27:46;13.70;;;8.55;;
35795;SDS011;21916;52.428;13.302;2024-03-08T13:30:12;15.60;;;8.73;;
35795;SDS011;21916;52.428;13.302;2024-03-08T13:32:39;13.30;;;9.20;;
35795;SDS011;21916;52.428;13.302;2024-03-08T13:35:09;15.40;;;9.48;;
35795;SDS011;21916;52.428;13.302;2024-03-08T13:37:41;13.68;;;9.35;;
35795;SDS011;21916;52.428;13.302;2024-03-08T13:40:07;15.40;;;10.00;;
35795;SDS011;21916;52.428;13.302;2024-03-08T13:42:39;19.48;;;11.23;;
35795;SDS011;21916;52.428;13.302;2024-03-08T13:45:06;19.85;;;11.02;;
35795;SDS011;21916;52.428;13.302;2024-03-08T13:47:40;17.60;;;11.85;;
35795;SDS011;21916;52.428;13.302;2024-03-08T13:50:06;16.80;;;11.98;;
35795;SDS011;21916;52.428;13.302;2024-03-08T13:52:36;16.48;;;11.00;;
35795;SDS011;21916;52.428;13.302;2024-03-08T13:55:04;17.85;;;11.25;;
35795;SDS011;21916;52.428;13.302;2024-03-08T13:57:31;14.90;;;11.13;;
35795;SDS011;21916;52.428;13.302;2024-03-08T13:59:58;16.13;;;10.38;;
35795;SDS011;21916;52.428;13.302;2024-03-08T14:02:24;14.55;;;10.77;;
35795;SDS011;21916;52.428;13.302;2024-03-08T14:04:54;14.48;;;10.40;;
35795;SDS011;21916;52.428;13.302;2024-03-08T14:07:20;16.63;;;10.38;;
35795;SDS011;21916;52.428;13.302;2024-03-08T14:09:46;15.68;;;10.43;;
35795;SDS011;21916;52.428;13.302;2024-03-08T14:12:11;19.33;;;10.73;;
35795;SDS011;21916;52.428;13.302;2024-03-08T14:14:40;13.68;;;9.65;;
35795;SDS011;21916;52.428;13.302;2024-03-08T14:17:07;16.00;;;10.18;;
35795;SDS011;21916;52.428;13.302;2024-03-08T14:19:35;15.05;;;9.27;;
35795;SDS011;21916;52.428;13.302;2024-03-08T14:22:01;14.18;;;9.73;;
35795;SDS011;21916;52.428;13.302;2024-03-08T14:24:32;13.43;;;9.32;;
35795;SDS011;21916;52.428;13.302;2024-03-08T14:27:00;12.20;;;9.05;;
35795;SDS011;21916;52.428;13.302;2024-03-08T14:29:28;17.85;;;10.63;;